Time;durP1;ratioP1;P1;durP2;ratioP2;P2;SDS_P1;SDS_P2;PMS_P1;PMS_P2;Temp;Humidity;BMP_temperature;BMP_pressure;BME280_temperature;BME280_humidity;BME280_pressure;Samples;Min_cycle;Max_cycle;Signal;HPM_P1;HPM_P2
2022/04/09 00:00:14;;;;;;;11.95;4.10;;;17.20;35.70;;;;;;5050866;28;20513;-44
2022/04/09 00:02:39;;;;;;;11.40;3.42;;;17.20;36.50;;;;;;5033722;28;20512;-44
2022/04/09 00:05:06;;;;;;;10.80;3.35;;;17.20;36.30;;;;;;5067374;28;20104;-44
2022/04/09 00:07:32;;;;;;;15.68;4.10;;;17.00;36.00;;;;;;5051647;28;20047;-45
2022/04/09 00:09:58;;;;;;;11.13;3.35;;;17.10;36.10;;;;;;5032709;28;20455;-44
2022/04/09 00:12:23;;;;;;;13.57;3.47;;;17.20;35.80;;;;;;5051405;28;20349;-46
2022/04/09 00:14:49;;;;;;;11.70;3.22;;;17.20;36.10;;;;;;5051702;28;20033;-44
2022/04/09 00:17:14;;;;;;;9.48;3.28;;;17.20;36.00;;;;;;5050708;28;20312;-45
2022/04/09 00:19:40;;;;;;;10.57;3.90;;;17.20;36.30;;;;;;5051400;28;20102;-44
2022/04/09 00:22:06;;;;;;;15.35;3.85;;;17.20;35.90;;;;;;5050686;28;20025;-44
2022/04/09 00:24:31;;;;;;;13.82;3.92;;;17.20;36.00;;;;;;5033538;28;20033;-46
2022/04/09 00:26:57;;;;;;;17.75;3.83;;;17.20;35.90;;;;;;5050506;28;20025;-43
2022/04/09 00:29:22;;;;;;;10.32;3.17;;;17.20;36.30;;;;;;5051648;28;20033;-44
2022/04/09 00:31:48;;;;;;;16.77;3.90;;;17.10;36.50;;;;;;5049500;28;20326;-44
2022/04/09 00:34:14;;;;;;;11.95;3.63;;;17.10;36.40;;;;;;5051471;28;20043;-44
2022/04/09 00:36:39;;;;;;;9.90;3.30;;;17.00;35.80;;;;;;5032728;28;20032;-44
2022/04/09 00:39:05;;;;;;;12.98;3.08;;;17.00;35.90;;;;;;5031038;28;20501;-45
2022/04/09 00:41:32;;;;;;;8.32;2.95;;;;;;;;;;5047723;28;20385;-47
2022/04/09 00:43:58;;;;;;;11.60;3.65;;;17.00;35.60;;;;;;5043016;28;20038;-46
2022/04/09 00:46:23;;;;;;;9.98;3.13;;;17.00;36.20;;;;;;5047224;28;20429;-45
2022/04/09 00:48:49;;;;;;;9.25;2.67;;;17.00;35.90;;;;;;5054722;28;20037;-44
2022/04/09 00:51:15;;;;;;;7.72;2.97;;;17.00;35.70;;;;;;5052954;28;20361;-44
2022/04/09 00:53:44;;;;;;;11.93;3.10;;;16.90;36.00;;;;;;5034800;28;20094;-44
2022/04/09 00:56:15;;;;;;;12.60;3.88;;;16.90;36.10;;;;;;5034532;28;20498;-43
2022/04/09 00:58:57;;;;;;;7.80;2.95;;;16.90;36.20;;;;;;5073083;28;20020;-44
2022/04/09 01:01:24;;;;;;;13.68;3.35;;;17.00;36.60;;;;;;5054699;28;20374;-44
2022/04/09 01:03:51;;;;;;;12.10;3.00;;;16.90;35.70;;;;;;5074597;28;20124;-45
2022/04/09 01:06:17;;;;;;;8.15;2.55;;;16.90;35.90;;;;;;5045472;28;20390;-44
2022/04/09 01:08:42;;;;;;;9.80;3.30;;;17.00;35.70;;;;;;5054530;28;20189;-44
2022/04/09 01:11:08;;;;;;;10.77;3.38;;;16.90;35.70;;;;;;5054694;28;20037;-44
2022/04/09 01:13:37;;;;;;;8.98;3.17;;;16.90;36.10;;;;;;5034789;28;20032;-44
2022/04/09 01:16:03;;;;;;;11.18;3.60;;;16.90;36.00;;;;;;5041195;28;20087;-44
2022/04/09 01:18:31;;;;;;;8.35;3.03;;;16.90;36.10;;;;;;5054281;28;20024;-44
2022/04/09 01:20:58;;;;;;;12.30;3.08;;;16.80;35.90;;;;;;5053426;28;20021;-44
2022/04/09 01:23:25;;;;;;;9.55;3.03;;;16.90;36.20;;;;;;5036230;28;20021;-44
2022/04/09 01:25:50;;;;;;;10.13;3.60;;;16.80;36.50;;;;;;5052818;28;20427;-44
2022/04/09 01:28:16;;;;;;;8.50;2.97;;;16.90;36.30;;;;;;5053490;28;20049;-45
2022/04/09 01:30:42;;;;;;;10.60;3.47;;;16.70;36.20;;;;;;5052664;28;20104;-44
2022/04/09 01:33:15;;;;;;;10.52;3.33;;;16.60;36.90;;;;;;5035154;28;20021;-45
2022/04/09 01:35:41;;;;;;;9.50;3.35;;;16.70;36.60;;;;;;5055025;28;20043;-44
2022/04/09 01:38:07;;;;;;;12.25;3.42;;;16.70;36.70;;;;;;5073626;28;20128;-44
2022/04/09 01:40:32;;;;;;;10.70;3.15;;;16.70;36.80;;;;;;5069792;28;20103;-44
2022/04/09 01:42:58;;;;;;;8.52;3.17;;;16.60;36.90;;;;;;5035276;28;20033;-44
2022/04/09 01:45:24;;;;;;;12.80;3.65;;;16.70;37.10;;;;;;5051862;28;20099;-44
2022/04/09 01:47:50;;;;;;;13.70;3.03;;;16.70;37.00;;;;;;5073141;28;20033;-44
2022/04/09 01:50:16;;;;;;;11.00;3.20;;;16.70;37.00;;;;;;5071073;28;20475;-44
2022/04/09 01:52:41;;;;;;;7.22;2.20;;;16.70;36.90;;;;;;5053233;28;20032;-43
2022/04/09 01:55:07;;;;;;;13.55;3.38;;;16.70;37.10;;;;;;5070877;28;20119;-44
2022/04/09 01:57:34;;;;;;;9.95;3.35;;;16.70;36.60;;;;;;5070647;28;20047;-44
2022/04/09 01:59:59;;;;;;;10.88;3.03;;;16.60;36.80;;;;;;5072786;28;20480;-44
2022/04/09 02:02:25;;;;;;;6.63;2.30;;;16.70;37.10;;;;;;5054965;28;20082;-45
2022/04/09 02:04:51;;;;;;;7.75;2.95;;;16.60;36.90;;;;;;5052848;28;20086;-44
2022/04/09 02:07:17;;;;;;;7.70;2.55;;;16.60;37.40;;;;;;5066264;28;20020;-44
2022/04/09 02:09:42;;;;;;;10.55;3.20;;;16.60;36.90;;;;;;5049569;28;20033;-44
2022/04/09 02:12:08;;;;;;;9.73;2.80;;;16.60;37.00;;;;;;5046007;28;20029;-44
2022/04/09 02:14:34;;;;;;;11.13;3.63;;;16.60;37.30;;;;;;5052421;28;20120;-44
2022/04/09 02:16:59;;;;;;;6.43;2.80;;;16.60;37.30;;;;;;5052046;28;20043;-46
2022/04/09 02:19:25;;;;;;;9.00;3.25;;;16.60;37.80;;;;;;5053436;28;20025;-44
2022/04/09 02:21:51;;;;;;;9.52;2.60;;;16.50;37.70;;;;;;5052605;28;20105;-45
2022/04/09 02:24:17;;;;;;;6.90;2.72;;;16.50;37.30;;;;;;5053347;28;20067;-44
2022/04/09 02:26:42;;;;;;;9.55;2.67;;;16.60;37.80;;;;;;5051898;28;20104;-44
2022/04/09 02:29:08;;;;;;;6.78;2.75;;;16.50;37.50;;;;;;5052789;28;20509;-44
2022/04/09 02:31:34;;;;;;;7.43;3.17;;;16.50;37.70;;;;;;5034192;28;20039;-44
2022/04/09 02:34:11;;;;;;;11.02;2.72;;;16.50;37.50;;;;;;5052772;28;20091;-44
2022/04/09 02:36:37;;;;;;;8.50;2.75;;;16.60;37.90;;;;;;5050760;28;20455;-44
2022/04/09 02:39:04;;;;;;;9.70;2.92;;;16.50;37.60;;;;;;5072567;28;20040;-44
2022/04/09 02:41:30;;;;;;;9.90;2.85;;;16.40;37.90;;;;;;5045695;28;20462;-44
2022/04/09 02:43:56;;;;;;;11.63;3.35;;;16.50;37.90;;;;;;5052508;28;20184;-44
2022/04/09 02:46:22;;;;;;;10.98;2.80;;;16.50;38.20;;;;;;5031091;28;20032;-46
2022/04/09 02:48:47;;;;;;;13.75;3.72;;;16.60;46.30;;;;;;5032756;28;20022;-45
2022/04/09 02:51:13;;;;;;;9.60;2.88;;;16.50;45.80;;;;;;5037655;28;20044;-44
2022/04/09 02:53:39;;;;;;;10.18;3.53;;;16.50;46.30;;;;;;5048648;28;20169;-43
2022/04/09 02:56:05;;;;;;;9.50;3.28;;;16.60;46.60;;;;;;5070356;28;20028;-44
2022/04/09 02:58:31;;;;;;;8.60;3.13;;;16.60;46.70;;;;;;5071148;28;20328;-46
2022/04/09 03:01:00;;;;;;;9.68;3.38;;;16.60;46.10;;;;;;5052354;28;20032;-45
2022/04/09 03:03:25;;;;;;;11.23;3.13;;;16.60;46.50;;;;;;5072351;28;20055;-44
2022/04/09 03:12:35;;;;;;;9.80;3.30;;;16.30;39.80;;;;;;5043628;28;20596;-44
2022/04/09 03:15:01;;;;;;;12.10;3.53;;;16.30;39.40;;;;;;5050305;28;20139;-44
2022/04/09 03:17:27;;;;;;;13.32;3.88;;;16.30;39.70;;;;;;5052216;28;20104;-45
2022/04/09 03:19:53;;;;;;;14.50;4.28;;;16.30;40.10;;;;;;5030160;28;20401;-44
2022/04/09 03:22:18;;;;;;;11.45;3.65;;;16.30;40.80;;;;;;5070651;28;20024;-44
2022/04/09 03:24:44;;;;;;;9.38;3.42;;;16.30;40.90;;;;;;5070305;28;20028;-44
2022/04/09 03:27:10;;;;;;;13.18;3.33;;;16.20;40.60;;;;;;5072106;28;20025;-44
2022/04/09 03:29:35;;;;;;;17.02;5.05;;;16.20;41.20;;;;;;5060128;28;20394;-44
2022/04/09 03:32:01;;;;;;;12.77;3.92;;;16.20;41.30;;;;;;5052097;28;20025;-44
2022/04/09 03:34:28;;;;;;;12.30;3.90;;;16.10;42.10;;;;;;5059781;28;20037;-44
2022/04/09 03:36:53;;;;;;;14.15;3.78;;;16.10;42.00;;;;;;5072114;28;20427;-44
2022/04/09 03:39:19;;;;;;;15.25;3.55;;;16.10;42.10;;;;;;5044803;28;20102;-44
2022/04/09 03:41:45;;;;;;;17.55;5.00;;;16.10;41.80;;;;;;5053969;28;20029;-44
2022/04/09 03:44:10;;;;;;;14.30;4.18;;;16.10;41.90;;;;;;5066176;28;20132;-44
2022/04/09 03:46:36;;;;;;;15.00;4.22;;;16.10;41.90;;;;;;5034019;28;20029;-44
2022/04/09 03:49:02;;;;;;;11.65;3.30;;;16.10;41.80;;;;;;5035017;28;20037;-44
2022/04/09 03:51:27;;;;;;;10.82;3.97;;;16.10;42.00;;;;;;5072174;28;20485;-44
2022/04/09 03:53:53;;;;;;;9.10;3.42;;;16.00;42.20;;;;;;5068872;28;20458;-44
2022/04/09 03:56:20;;;;;;;15.65;4.18;;;;;;;;;;5033736;28;20105;-44
2022/04/09 03:58:48;;;;;;;11.68;4.25;;;15.90;41.70;;;;;;5051216;28;20029;-44
2022/04/09 04:01:14;;;;;;;9.50;3.35;;;15.90;42.50;;;;;;5071938;28;20028;-45
2022/04/09 04:03:40;;;;;;;9.18;4.03;;;15.90;42.60;;;;;;5070013;28;20032;-44
2022/04/09 04:06:06;;;;;;;14.55;4.95;;;15.90;42.60;;;;;;5057620;28;20043;-46
2022/04/09 04:08:31;;;;;;;12.30;4.50;;;15.90;42.50;;;;;;5065553;28;20471;-44
2022/04/09 04:11:01;;;;;;;13.88;3.90;;;15.80;43.10;;;;;;5052276;28;20113;-45
2022/04/09 04:13:27;;;;;;;15.57;4.10;;;15.80;43.60;;;;;;5052030;28;20024;-48
2022/04/09 04:15:54;;;;;;;11.10;3.65;;;15.70;43.80;;;;;;5050709;28;20029;-48
2022/04/09 04:18:19;;;;;;;17.67;4.50;;;15.80;44.00;;;;;;5051838;28;20382;-46
2022/04/09 04:20:45;;;;;;;18.35;4.97;;;15.70;44.30;;;;;;5069913;28;20028;-44
2022/04/09 04:23:10;;;;;;;13.27;4.22;;;15.50;45.80;;;;;;5075392;28;20550;-46
2022/04/09 04:25:36;;;;;;;15.95;5.20;;;15.50;46.80;;;;;;5059217;28;20028;-44
2022/04/09 04:28:02;;;;;;;14.35;4.75;;;15.60;46.60;;;;;;5055377;28;20025;-46
2022/04/09 04:30:27;;;;;;;11.30;4.50;;;15.60;46.80;;;;;;5067244;28;20028;-47
2022/04/09 04:32:53;;;;;;;18.20;4.63;;;15.60;47.40;;;;;;5075251;28;20108;-45
2022/04/09 04:35:19;;;;;;;17.63;5.05;;;15.50;46.90;;;;;;5062024;28;20040;-45
2022/04/09 04:37:46;;;;;;;14.13;4.50;;;15.60;47.60;;;;;;5054251;28;20029;-44
2022/04/09 04:40:14;;;;;;;19.77;4.95;;;15.50;47.70;;;;;;5054359;28;20033;-44
2022/04/09 04:42:40;;;;;;;15.00;5.03;;;15.40;48.20;;;;;;5055080;28;20032;-44
2022/04/09 04:45:06;;;;;;;13.18;4.60;;;15.50;48.30;;;;;;5061558;28;20041;-44
2022/04/09 04:47:32;;;;;;;15.10;4.97;;;15.40;49.00;;;;;;5074990;28;20474;-43
2022/04/09 04:50:02;;;;;;;11.90;4.88;;;15.40;48.70;;;;;;5072687;28;20035;-43
2022/04/09 04:52:29;;;;;;;20.77;5.30;;;15.30;50.10;;;;;;5074749;28;20111;-43
2022/04/09 04:54:55;;;;;;;16.67;5.20;;;15.30;50.20;;;;;;5065246;28;20453;-44
2022/04/09 04:57:20;;;;;;;12.48;4.70;;;15.20;50.30;;;;;;5055106;28;20025;-44
2022/04/09 04:59:46;;;;;;;22.73;5.97;;;15.20;51.40;;;;;;5053098;28;20039;-43
2022/04/09 05:02:11;;;;;;;13.98;5.20;;;15.20;51.20;;;;;;5056174;28;20107;-44
2022/04/09 05:04:37;;;;;;;16.50;5.35;;;15.20;50.90;;;;;;5063403;28;20035;-44
2022/04/09 05:07:03;;;;;;;19.60;5.70;;;15.20;51.40;;;;;;5074591;28;20029;-44
2022/04/09 05:09:29;;;;;;;22.05;5.78;;;15.20;52.10;;;;;;5072788;28;20025;-45
2022/04/09 05:11:54;;;;;;;20.40;6.50;;;15.20;51.80;;;;;;5056402;28;20048;-43
2022/04/09 05:14:20;;;;;;;16.58;4.95;;;15.20;52.40;;;;;;5052629;28;20135;-43
2022/04/09 05:16:45;;;;;;;24.45;6.30;;;15.10;52.50;;;;;;5054416;28;20029;-43
2022/04/09 05:19:11;;;;;;;17.27;6.03;;;15.10;54.50;;;;;;5035876;28;20032;-43
2022/04/09 05:21:37;;;;;;;11.68;5.20;;;15.00;54.30;;;;;;5054235;28;20414;-43
2022/04/09 05:24:03;;;;;;;13.30;5.38;;;15.00;53.60;;;;;;5054579;28;20056;-46
2022/04/09 05:26:29;;;;;;;11.57;5.30;;;15.00;54.20;;;;;;5072169;28;20025;-44
2022/04/09 05:28:54;;;;;;;12.18;5.28;;;15.10;54.20;;;;;;5074267;28;20029;-44
2022/04/09 05:31:27;;;;;;;11.90;5.35;;;15.10;54.40;;;;;;5069585;28;20094;-44
2022/04/09 05:33:53;;;;;;;14.57;5.65;;;15.00;54.60;;;;;;5074247;28;20024;-44
2022/04/09 05:36:19;;;;;;;9.95;4.63;;;15.10;54.00;;;;;;5054860;28;20056;-44
2022/04/09 05:38:45;;;;;;;10.52;5.50;;;15.20;54.30;;;;;;5054347;28;20048;-44
2022/04/09 05:41:10;;;;;;;10.38;5.53;;;15.10;54.20;;;;;;5068760;28;20028;-44
2022/04/09 05:43:36;;;;;;;13.50;5.03;;;15.10;55.60;;;;;;5063164;28;20037;-44
2022/04/09 05:46:02;;;;;;;13.95;5.63;;;15.10;54.80;;;;;;5052953;28;20029;-44
2022/04/09 05:48:27;;;;;;;13.73;5.03;;;15.20;54.40;;;;;;5035922;28;20060;-44
2022/04/09 05:50:53;;;;;;;13.95;5.85;;;15.20;54.30;;;;;;5055302;28;20033;-44
2022/04/09 05:53:19;;;;;;;19.48;5.90;;;15.20;54.60;;;;;;5033171;28;20792;-46
2022/04/09 05:55:45;;;;;;;15.75;6.03;;;15.20;54.90;;;;;;5050479;28;20051;-44
2022/04/09 05:58:11;;;;;;;14.20;5.50;;;15.30;54.50;;;;;;5051863;28;20355;-46
2022/04/09 06:00:37;;;;;;;14.18;5.32;;;15.40;54.40;;;;;;5052053;28;20021;-44
2022/04/09 06:03:03;;;;;;;12.82;4.88;;;15.30;53.50;;;;;;5036533;28;20052;-46
2022/04/09 06:05:29;;;;;;;13.50;5.70;;;15.30;53.50;;;;;;5045573;28;20017;-44
2022/04/09 06:07:55;;;;;;;13.18;5.65;;;15.30;53.30;;;;;;5035513;28;20508;-44
2022/04/09 06:10:20;;;;;;;12.20;4.90;;;15.30;54.10;;;;;;5045203;28;20491;-44
2022/04/09 06:12:46;;;;;;;11.48;4.70;;;15.20;53.60;;;;;;5035409;28;20029;-44
2022/04/09 06:15:12;;;;;;;10.88;5.10;;;15.40;53.50;;;;;;5059046;28;20086;-44
2022/04/09 06:17:39;;;;;;;15.32;5.80;;;15.40;52.70;;;;;;5033952;28;20448;-44
2022/04/09 06:20:06;;;;;;;12.50;5.03;;;15.50;52.10;;;;;;5037914;28;20098;-43
2022/04/09 06:22:32;;;;;;;13.48;5.10;;;15.50;51.50;;;;;;5034191;28;20449;-45
2022/04/09 06:24:58;;;;;;;12.98;5.25;;;15.60;51.60;;;;;;5051270;28;20063;-44
2022/04/09 06:27:24;;;;;;;11.27;5.45;;;15.50;51.40;;;;;;5053041;28;20032;-44
2022/04/09 06:29:49;;;;;;;14.25;5.82;;;15.50;52.00;;;;;;5054969;28;20035;-43
2022/04/09 06:32:15;;;;;;;11.55;5.68;;;15.50;51.60;;;;;;5072658;28;20133;-43
2022/04/09 06:34:41;;;;;;;12.23;5.38;;;15.50;51.90;;;;;;5068809;28;20406;-44
2022/04/09 06:40:28;;;;;;;13.25;5.30;;;15.60;51.60;;;;;;5046296;28;20170;-44
2022/04/09 06:43:00;;;;;;;13.55;6.18;;;15.70;50.20;;;;;;5032858;28;20119;-43
2022/04/09 06:45:25;;;;;;;14.52;5.55;;;15.70;49.00;;;;;;5043027;28;20057;-44
2022/04/09 06:48:04;;;;;;;8.68;4.38;;;15.70;48.10;;;;;;5072755;28;20557;-44
2022/04/09 06:50:30;;;;;;;8.30;3.85;;;15.60;42.80;;;;;;5067561;28;20078;-45
2022/04/09 06:52:55;;;;;;;11.30;3.95;;;15.70;43.00;;;;;;5052307;28;20119;-44
2022/04/09 06:55:21;;;;;;;12.32;4.10;;;15.90;40.40;;;;;;5051905;28;20037;-44
2022/04/09 06:57:47;;;;;;;9.93;3.72;;;15.90;38.60;;;;;;5046946;28;20021;-44
2022/04/09 07:00:17;;;;;;;9.02;4.20;;;15.80;36.30;;;;;;5043577;28;20033;-44
2022/04/09 07:02:42;;;;;;;12.45;4.85;;;15.90;37.80;;;;;;5051159;28;20025;-44
2022/04/09 07:05:09;;;;;;;11.38;3.80;;;15.90;37.40;;;;;;5070660;28;20024;-45
2022/04/09 07:07:35;;;;;;;9.52;4.05;;;16.00;37.00;;;;;;5071033;28;20029;-44
2022/04/09 07:10:05;;;;;;;8.27;3.53;;;16.00;35.10;;;;;;5072423;28;20028;-44
2022/04/09 07:12:31;;;;;;;7.53;2.83;;;16.10;34.00;;;;;;5051955;28;20489;-43
2022/04/09 07:14:57;;;;;;;8.70;2.80;;;16.20;31.50;;;;;;5052408;28;20064;-45
2022/04/09 07:17:24;;;;;;;5.97;2.58;;;16.20;29.10;;;;;;5050929;28;20378;-44
2022/04/09 07:19:51;;;;;;;6.05;2.83;;;16.30;26.30;;;;;;5072395;28;20107;-44
2022/04/09 07:22:16;;;;;;;7.47;2.55;;;16.30;26.30;;;;;;5035908;28;20028;-44
2022/04/09 07:24:42;;;;;;;4.60;2.20;;;16.40;24.80;;;;;;5052419;28;20025;-44
2022/04/09 07:27:08;;;;;;;5.38;2.28;;;16.40;26.30;;;;;;5066308;28;20032;-46
2022/04/09 07:29:34;;;;;;;4.63;1.83;;;16.50;22.80;;;;;;5052661;28;20031;-43
2022/04/09 07:32:00;;;;;;;7.45;1.85;;;16.50;22.30;;;;;;5069218;28;20048;-43
2022/04/09 07:34:26;;;;;;;6.05;1.65;;;16.60;21.40;;;;;;5072014;28;20016;-44
2022/04/09 07:36:52;;;;;;;8.52;2.13;;;16.70;21.20;;;;;;5069332;28;20039;-45
2022/04/09 07:39:18;;;;;;;2.88;1.40;;;16.80;22.30;;;;;;5072089;28;20017;-45
2022/04/09 07:41:43;;;;;;;4.35;0.93;;;16.90;18.00;;;;;;5052211;28;20057;-45
2022/04/09 07:44:09;;;;;;;4.18;0.88;;;17.00;16.20;;;;;;5071686;28;20071;-43
2022/04/09 07:46:34;;;;;;;4.15;0.63;;;17.10;13.20;;;;;;5060394;28;20029;-44
2022/04/09 07:49:00;;;;;;;2.92;0.52;;;17.10;11.50;;;;;;5051245;28;20021;-44
2022/04/09 07:51:26;;;;;;;5.50;0.57;;;17.20;9.90;;;;;;5059233;28;20059;-43
2022/04/09 07:53:52;;;;;;;5.63;0.52;;;17.30;7.30;;;;;;5072495;28;20460;-43
2022/04/09 07:56:18;;;;;;;6.38;0.40;;;17.40;3.80;;;;;;5065082;28;20040;-47
2022/04/09 07:58:44;;;;;;;4.03;0.38;;;17.50;4.50;;;;;;5055885;28;20040;-44
2022/04/09 08:07:53;;;;;;;4.97;0.50;;;17.60;1.40;;;;;;5040385;28;20037;-43
2022/04/09 08:10:19;;;;;;;4.82;0.63;;;17.60;1.30;;;;;;5040286;28;20029;-43
2022/04/09 08:12:48;;;;;;;5.68;0.30;;;17.70;1.00;;;;;;5047437;28;20030;-44
2022/04/09 08:15:14;;;;;;;5.13;0.35;;;17.60;1.00;;;;;;5075625;28;20032;-43
2022/04/09 08:17:40;;;;;;;2.35;0.17;;;17.70;1.00;;;;;;5064200;28;20467;-46
2022/04/09 08:20:07;;;;;;;2.78;0.30;;;17.70;1.00;;;;;;5035744;28;20025;-44
2022/04/09 08:22:33;;;;;;;4.38;0.40;;;17.70;1.00;;;;;;5064509;28;20035;-46
2022/04/09 08:29:19;;;;;;;1.48;0.05;;;17.90;1.00;;;;;;5050650;28;20063;-44
2022/04/09 08:31:47;;;;;;;5.20;0.30;;;17.90;1.00;;;;;;5047223;28;20075;-44
2022/04/09 08:34:17;;;;;;;2.92;0.40;;;17.80;1.00;;;;;;5055412;28;20060;-44
2022/04/09 08:36:44;;;;;;;5.95;0.55;;;17.90;1.00;;;;;;5057308;28;20032;-44
2022/04/09 08:39:11;;;;;;;2.35;0.10;;;17.90;1.00;;;;;;5045664;28;20396;-44
2022/04/09 08:41:38;;;;;;;3.42;0.30;;;18.00;1.00;;;;;;5054944;28;20032;-44
2022/04/09 08:44:05;;;;;;;4.78;0.30;;;18.00;1.00;;;;;;5062397;28;20085;-44
2022/04/09 08:46:31;;;;;;;3.42;0.35;;;17.90;1.00;;;;;;5074103;28;20133;-44
2022/04/09 08:48:58;;;;;;;5.88;0.75;;;18.00;1.00;;;;;;5055756;28;20055;-44
2022/04/09 08:51:25;;;;;;;2.90;0.10;;;17.90;1.00;;;;;;5075290;28;20141;-44
2022/04/09 08:53:52;;;;;;;1.80;0.20;;;18.00;1.00;;;;;;5066935;28;20040;-46
2022/04/09 08:56:18;;;;;;;5.90;0.47;;;18.00;1.00;;;;;;5054903;28;20037;-44
2022/04/09 08:58:44;;;;;;;6.03;0.85;;;18.00;1.00;;;;;;5058920;28;20062;-44
2022/04/09 09:01:10;;;;;;;2.30;0.10;;;18.00;1.00;;;;;;5056769;28;20029;-44
2022/04/09 09:03:36;;;;;;;5.15;0.47;;;18.00;1.00;;;;;;5068969;28;20025;-45
2022/04/09 09:06:27;;;;;;;7.60;0.40;;;18.00;1.00;;;;;;5054711;28;20025;-45
2022/04/09 09:08:54;;;;;;;5.25;0.57;;;18.00;1.00;;;;;;5059194;28;20371;-46
2022/04/09 09:11:20;;;;;;;7.68;0.93;;;18.10;1.00;;;;;;5074425;28;20032;-44
2022/04/09 09:13:47;;;;;;;9.55;0.70;;;18.10;1.00;;;;;;5049538;28;20025;-44
2022/04/09 09:16:22;;;;;;;4.28;0.35;;;18.10;1.00;;;;;;5054399;28;20040;-44
2022/04/09 09:18:54;;;;;;;10.23;0.73;;;18.20;1.00;;;;;;5050686;28;20096;-44
2022/04/09 09:21:23;;;;;;;5.65;0.55;;;18.10;1.00;;;;;;5036042;28;20029;-44
2022/04/09 09:24:18;;;;;;;10.02;0.40;;;18.30;1.00;;;;;;5039555;28;20351;-44
2022/04/09 09:26:44;;;;;;;5.05;0.47;;;18.20;1.00;;;;;;5048176;28;20044;-43
2022/04/09 09:29:22;;;;;;;7.70;0.32;;;18.20;1.00;;;;;;5068143;28;20036;-45
2022/04/09 09:31:50;;;;;;;8.90;0.68;;;18.20;1.00;;;;;;5074340;28;20185;-43
2022/04/09 09:34:21;;;;;;;6.13;0.60;;;18.20;1.00;;;;;;5064059;28;20454;-44
2022/04/09 09:36:49;;;;;;;11.65;0.77;;;18.30;1.00;;;;;;5054198;28;20032;-45
2022/04/09 09:39:17;;;;;;;8.73;0.63;;;18.40;1.00;;;;;;5060675;28;20031;-46
2022/04/09 09:41:52;;;;;;;4.78;0.70;;;18.40;1.00;;;;;;5056059;28;20079;-44
2022/04/09 09:44:19;;;;;;;5.40;0.57;;;18.40;1.00;;;;;;5064008;28;20344;-45
2022/04/09 09:46:47;;;;;;;5.20;0.55;;;18.30;1.00;;;;;;5035753;28;20025;-45
2022/04/09 09:49:14;;;;;;;5.03;0.30;;;18.20;1.00;;;;;;5042289;28;20043;-46
2022/04/09 09:51:39;;;;;;;10.32;0.80;;;18.20;1.00;;;;;;5073823;28;20032;-45
2022/04/09 09:54:06;;;;;;;4.35;0.57;;;18.10;1.00;;;;;;5066812;28;20505;-47
2022/04/09 09:56:41;;;;;;;5.95;0.45;;;18.20;1.00;;;;;;5073904;28;20052;-43
2022/04/09 09:59:07;;;;;;;;;;;18.30;1.00;;;;;;5065625;28;20047;-44
2022/04/09 10:01:39;;;;;;;7.90;0.65;;;18.30;1.00;;;;;;5053589;28;20349;-43
2022/04/09 10:04:06;;;;;;;14.23;1.23;;;18.30;1.00;;;;;;5052718;28;20037;-45
2022/04/09 10:06:36;;;;;;;6.80;0.60;;;18.30;1.00;;;;;;5052613;28;20212;-46
2022/04/09 10:09:05;;;;;;;3.97;0.52;;;18.30;1.00;;;;;;5052608;28;20483;-47
2022/04/09 10:11:42;;;;;;;1.50;0.25;;;18.50;1.00;;;;;;5035810;28;20506;-45
2022/04/09 10:14:12;;;;;;;9.80;0.55;;;18.60;1.00;;;;;;5057845;28;20032;-44
2022/04/09 10:16:41;;;;;;;7.53;0.65;;;18.50;1.00;;;;;;5072892;28;20059;-46
2022/04/09 10:19:09;;;;;;;4.03;0.30;;;18.50;1.00;;;;;;5048514;28;20063;-44
2022/04/09 10:21:39;;;;;;;2.75;0.47;;;18.40;1.00;;;;;;5052293;28;20419;-45
2022/04/09 10:24:12;;;;;;;4.63;0.30;;;18.50;1.00;;;;;;5061748;28;20048;-43
2022/04/09 10:26:38;;;;;;;4.78;1.02;;;18.50;1.00;;;;;;5042064;28;20036;-44
2022/04/09 10:29:09;;;;;;;3.97;0.60;;;18.40;1.00;;;;;;5056223;28;20025;-44
2022/04/09 10:31:36;;;;;;;3.58;0.22;;;18.50;1.00;;;;;;5054873;28;20090;-44
2022/04/09 10:34:04;;;;;;;4.10;0.43;;;18.60;1.00;;;;;;5070902;28;20108;-43
2022/04/09 10:36:44;;;;;;;3.58;0.40;;;18.60;1.00;;;;;;5073054;28;20052;-44
2022/04/09 10:39:25;;;;;;;2.33;0.22;;;18.60;1.00;;;;;;5067905;28;20025;-44
2022/04/09 10:41:54;;;;;;;4.55;0.43;;;18.60;1.00;;;;;;5072830;28;20478;-44
2022/04/09 10:44:45;;;;;;;7.25;0.40;;;18.70;1.00;;;;;;5052124;28;20071;-43
2022/04/09 10:47:14;;;;;;;4.80;0.43;;;18.70;1.00;;;;;;5072813;28;20111;-45
2022/04/09 10:49:41;;;;;;;3.08;0.22;;;18.80;1.00;;;;;;5060651;28;20044;-45
2022/04/09 10:52:14;;;;;;;4.00;0.45;;;18.80;1.00;;;;;;5052675;28;20044;-45
2022/04/09 10:54:44;;;;;;;5.93;0.77;;;18.80;1.00;;;;;;5059415;28;20024;-45
2022/04/09 10:57:22;;;;;;;3.75;0.63;;;18.80;1.00;;;;;;5044021;28;20030;-45
2022/04/09 11:00:00;;;;;;;2.55;0.20;;;18.70;1.00;;;;;;5033282;28;20039;-44
2022/04/09 11:02:30;;;;;;;4.88;0.22;;;18.70;1.00;;;;;;5048648;28;20025;-45
2022/04/09 11:04:55;;;;;;;4.40;0.50;;;18.70;1.00;;;;;;5044452;28;20037;-44
2022/04/09 11:07:22;;;;;;;8.27;0.45;;;18.90;1.00;;;;;;5037793;28;20029;-45
2022/04/09 11:10:01;;;;;;;1.73;0.47;;;19.10;1.00;;;;;;5042072;28;20022;-46
2022/04/09 11:12:31;;;;;;;3.10;0.57;;;19.10;1.00;;;;;;5036330;28;20029;-46
2022/04/09 11:14:58;;;;;;;4.80;0.80;;;18.90;1.00;;;;;;5042279;28;20041;-46
2022/04/09 11:17:37;;;;;;;5.22;0.90;;;19.10;1.00;;;;;;5042117;28;20057;-44
2022/04/09 11:20:14;;;;;;;2.58;0.45;;;19.10;1.00;;;;;;5039807;28;20335;-45
2022/04/09 11:22:41;;;;;;;16.75;1.33;;;19.10;1.00;;;;;;5051948;28;20154;-43
2022/04/09 11:25:09;;;;;;;5.43;0.30;;;18.90;1.00;;;;;;5051353;28;20044;-43
2022/04/09 11:27:35;;;;;;;3.58;0.47;;;18.80;1.00;;;;;;5052238;28;20031;-45
2022/04/09 11:33:23;;;;;;;5.18;0.80;;;19.00;1.00;;;;;;5049362;28;20040;-44
2022/04/09 11:35:49;;;;;;;4.75;0.43;;;18.80;1.00;;;;;;5052299;28;20029;-44
2022/04/09 11:38:16;;;;;;;5.03;0.82;;;19.10;1.00;;;;;;5051034;28;20029;-44
2022/04/09 11:40:47;;;;;;;1.13;0.40;;;19.10;1.00;;;;;;5032117;28;20032;-44
2022/04/09 11:43:15;;;;;;;2.10;0.60;;;19.30;1.00;;;;;;5031732;28;20026;-46
2022/04/09 11:45:42;;;;;;;4.88;0.40;;;19.40;1.00;;;;;;5051883;28;20037;-44
2022/04/09 11:48:13;;;;;;;7.90;0.63;;;;;;;;;;5051695;28;20029;-43
2022/04/09 11:50:39;;;;;;;3.83;0.55;;;19.40;1.00;;;;;;5053314;28;20485;-44
2022/04/09 12:03:12;;;;;;;2.95;0.50;;;19.40;1.00;;;;;;5046630;28;20497;-44
2022/04/09 12:05:43;;;;;;;5.85;0.55;;;19.30;1.00;;;;;;5051792;28;20079;-44
2022/04/09 12:08:13;;;;;;;3.97;0.47;;;19.70;1.00;;;;;;5050929;28;20457;-44
2022/04/09 12:10:54;;;;;;;1.88;0.40;;;19.70;1.00;;;;;;5051580;28;20029;-44
2022/04/09 12:13:28;;;;;;;9.73;0.82;;;20.00;1.00;;;;;;5059997;28;20463;-43
2022/04/09 12:15:54;;;;;;;5.80;1.20;;;21.00;1.00;;;;;;5053633;28;20444;-45
2022/04/09 12:18:31;;;;;;;8.88;1.02;;;23.80;1.00;;;;;;5069057;28;20470;-44
2022/04/09 12:20:58;;;;;;;11.05;0.98;;;25.10;1.00;;;;;;5071847;28;20036;-44
2022/04/09 12:23:32;;;;;;;3.90;0.60;;;24.70;1.00;;;;;;5059896;28;20383;-44
2022/04/09 12:25:57;;;;;;;3.10;0.60;;;26.40;1.00;;;;;;5033685;28;20413;-45
2022/04/09 12:28:28;;;;;;;5.20;0.68;;;28.60;1.00;;;;;;5060516;28;20040;-44
2022/04/09 12:30:56;;;;;;;5.53;0.50;;;29.50;1.00;;;;;;5069231;28;20039;-44
2022/04/09 12:33:23;;;;;;;3.00;1.00;;;27.00;1.00;;;;;;5050517;28;20056;-45
2022/04/09 12:35:49;;;;;;;2.92;0.95;;;26.00;1.00;;;;;;5051592;28;20036;-45
2022/04/09 12:38:36;;;;;;;3.75;0.60;;;25.10;1.00;;;;;;5050469;28;20033;-44
2022/04/09 12:41:06;;;;;;;6.70;0.77;;;24.70;1.00;;;;;;5053964;28;20029;-46
2022/04/09 12:43:35;;;;;;;3.97;1.05;;;25.80;1.00;;;;;;5054516;28;20033;-44
2022/04/09 12:46:05;;;;;;;1.17;0.80;;;25.80;1.00;;;;;;5047782;28;20398;-44
2022/04/09 12:48:38;;;;;;;1.70;0.50;;;26.50;1.00;;;;;;5045683;28;20032;-44
2022/04/09 12:51:04;;;;;;;3.10;0.60;;;25.30;1.00;;;;;;5055042;28;20032;-44
2022/04/09 12:53:30;;;;;;;3.45;0.98;;;25.90;1.00;;;;;;5054085;28;20060;-45
2022/04/09 12:55:56;;;;;;;3.55;0.65;;;26.40;1.00;;;;;;5055220;28;20041;-44
2022/04/09 12:58:21;;;;;;;2.85;0.70;;;29.80;1.00;;;;;;5062320;28;20038;-44
2022/04/09 13:00:47;;;;;;;2.08;0.50;;;32.20;1.00;;;;;;5073399;28;20376;-43
2022/04/09 13:03:13;;;;;;;1.25;0.70;;;;;;;;;;5072683;28;20083;-43
2022/04/09 13:05:41;;;;;;;1.67;0.98;;;;;;;;;;5057471;28;20359;-44
2022/04/09 13:08:07;;;;;;;3.22;0.95;;;31.60;1.00;;;;;;5066737;28;20087;-44
2022/04/09 13:10:34;;;;;;;1.17;0.60;;;32.80;1.00;;;;;;5055142;28;20025;-44
2022/04/09 13:13:00;;;;;;;5.63;1.05;;;29.60;1.00;;;;;;5053823;28;20025;-44
2022/04/09 13:15:26;;;;;;;0.90;0.90;;;27.90;1.00;;;;;;5054591;28;20032;-43
2022/04/09 13:17:52;;;;;;;1.73;0.60;;;27.80;1.00;;;;;;5036026;28;20040;-44
2022/04/09 13:20:18;;;;;;;9.82;1.23;;;26.60;1.00;;;;;;5054867;28;20029;-43
2022/04/09 13:22:44;;;;;;;6.32;1.10;;;26.20;1.00;;;;;;5053549;28;20036;-43